sensor_id;sensor_type;location;lat;lon;timestamp;pressure;altitude;pressure_sealevel;temperature;humidity
49461;BME280;35355;49.198;-0.368;2023-02-28T00:01:01;102325.69;;;2.58;63.50
49461;BME280;35355;49.198;-0.368;2023-02-28T00:03:26;102332.06;;;2.57;63.16
49461;BME280;35355;49.198;-0.368;2023-02-28T00:05:51;102323.47;;;2.54;63.72
49461;BME280;35355;49.198;-0.368;2023-02-28T00:08:17;102331.38;;;2.55;63.26
49461;BME280;35355;49.198;-0.368;2023-02-28T00:10:42;102327.19;;;2.53;63.38
49461;BME280;35355;49.198;-0.368;2023-02-28T00:13:07;102327.69;;;2.56;63.63
49461;BME280;35355;49.198;-0.368;2023-02-28T00:15:33;102331.38;;;2.55;63.43
49461;BME280;35355;49.198;-0.368;2023-02-28T00:17:59;102325.50;;;2.52;63.51
49461;BME280;35355;49.198;-0.368;2023-02-28T00:20:24;102327.19;;;2.53;63.40
49461;BME280;35355;49.198;-0.368;2023-02-28T00:22:51;102335.28;;;2.53;63.47
49461;BME280;35355;49.198;-0.368;2023-02-28T00:25:20;102323.97;;;2.49;63.34
49461;BME280;35355;49.198;-0.368;2023-02-28T00:27:46;102333.59;;;2.52;62.97
49461;BME280;35355;49.198;-0.368;2023-02-28T00:30:14;102327.38;;;2.51;63.24
49461;BME280;35355;49.198;-0.368;2023-02-28T00:32:40;102327.19;;;2.53;63.20
49461;BME280;35355;49.198;-0.368;2023-02-28T00:35:07;102325.69;;;2.50;62.84
49461;BME280;35355;49.198;-0.368;2023-02-28T00:37:33;102331.06;;;2.50;63.31
49461;BME280;35355;49.198;-0.368;2023-02-28T00:39:58;102327.53;;;2.50;62.79
49461;BME280;35355;49.198;-0.368;2023-02-28T00:42:24;102332.94;;;2.50;62.81
49461;BME280;35355;49.198;-0.368;2023-02-28T00:44:50;102319.94;;;2.45;63.06
49461;BME280;35355;49.198;-0.368;2023-02-28T00:47:15;102331.22;;;2.49;62.87
49461;BME280;35355;49.198;-0.368;2023-02-28T00:49:41;102320.97;;;2.44;63.13
49461;BME280;35355;49.198;-0.368;2023-02-28T00:52:06;102330.72;;;2.45;62.91
49461;BME280;35355;49.198;-0.368;2023-02-28T00:54:31;102323.31;;;2.47;63.05
49461;BME280;35355;49.198;-0.368;2023-02-28T00:56:57;102329.72;;;2.46;62.71
49461;BME280;35355;49.198;-0.368;2023-02-28T00:59:22;102338.97;;;2.43;62.89
49461;BME280;35355;49.198;-0.368;2023-02-28T01:01:48;102336.28;;;2.43;62.71
49461;BME280;35355;49.198;-0.368;2023-02-28T01:04:14;102339.84;;;2.44;63.13
49461;BME280;35355;49.198;-0.368;2023-02-28T01:06:40;102327.34;;;2.43;63.11
49461;BME280;35355;49.198;-0.368;2023-02-28T01:09:06;102336.28;;;2.43;62.82
49461;BME280;35355;49.198;-0.368;2023-02-28T01:11:33;102333.91;;;2.40;63.09
49461;BME280;35355;49.198;-0.368;2023-02-28T01:13:59;102336.78;;;2.39;63.24
49461;BME280;35355;49.198;-0.368;2023-02-28T01:16:24;102343.88;;;2.40;63.52
49461;BME280;35355;49.198;-0.368;2023-02-28T01:18:50;102345.91;;;2.38;62.90
49461;BME280;35355;49.198;-0.368;2023-02-28T01:21:16;102343.19;;;2.38;63.28
49461;BME280;35355;49.198;-0.368;2023-02-28T01:23:42;102348.75;;;2.36;63.58
49461;BME280;35355;49.198;-0.368;2023-02-28T01:26:11;102344.00;;;2.30;63.30
49461;BME280;35355;49.198;-0.368;2023-02-28T01:28:37;102354.47;;;2.33;63.53
49461;BME280;35355;49.198;-0.368;2023-02-28T01:31:03;102350.28;;;2.31;63.10
49461;BME280;35355;49.198;-0.368;2023-02-28T01:33:28;102343.53;;;2.26;63.34
49461;BME280;35355;49.198;-0.368;2023-02-28T01:36:01;102347.41;;;2.32;63.77
49461;BME280;35355;49.198;-0.368;2023-02-28T01:38:27;102340.50;;;2.30;63.77
49461;BME280;35355;49.198;-0.368;2023-02-28T01:40:53;102342.00;;;2.32;63.34
49461;BME280;35355;49.198;-0.368;2023-02-28T01:43:27;102346.53;;;2.32;63.71
49461;BME280;35355;49.198;-0.368;2023-02-28T01:45:53;102346.53;;;2.32;63.72
49461;BME280;35355;49.198;-0.368;2023-02-28T01:48:21;102346.53;;;2.32;63.23
49461;BME280;35355;49.198;-0.368;2023-02-28T01:50:48;102343.19;;;2.30;63.61
49461;BME280;35355;49.198;-0.368;2023-02-28T01:53:18;102347.75;;;2.29;63.10
49461;BME280;35355;49.198;-0.368;2023-02-28T01:55:47;102338.13;;;2.26;63.32
49461;BME280;35355;49.198;-0.368;2023-02-28T01:58:14;102341.50;;;2.28;63.16
49461;BME280;35355;49.198;-0.368;2023-02-28T02:00:39;102338.13;;;2.26;63.38
49461;BME280;35355;49.198;-0.368;2023-02-28T02:03:13;102350.59;;;2.27;63.33
49461;BME280;35355;49.198;-0.368;2023-02-28T02:05:41;102346.03;;;2.28;63.67
49461;BME280;35355;49.198;-0.368;2023-02-28T02:08:12;102342.69;;;2.26;63.73
49461;BME280;35355;49.198;-0.368;2023-02-28T02:10:59;102339.13;;;2.25;63.61
49461;BME280;35355;49.198;-0.368;2023-02-28T02:13:42;102331.06;;;2.25;63.80
49461;BME280;35355;49.198;-0.368;2023-02-28T02:19:08;102335.78;;;2.23;63.75
49461;BME280;35355;49.198;-0.368;2023-02-28T02:24:41;102329.69;;;2.21;63.22
49461;BME280;35355;49.198;-0.368;2023-02-28T02:27:23;102331.72;;;2.19;63.74
49461;BME280;35355;49.198;-0.368;2023-02-28T02:35:52;102342.34;;;2.21;63.11
49461;BME280;35355;49.198;-0.368;2023-02-28T02:38:31;102330.91;;;2.19;63.45
49461;BME280;35355;49.198;-0.368;2023-02-28T02:41:14;102338.81;;;2.20;63.01
49461;BME280;35355;49.198;-0.368;2023-02-28T02:43:52;102330.91;;;2.19;63.19
49461;BME280;35355;49.198;-0.368;2023-02-28T02:46:32;102335.75;;;2.15;63.21
49461;BME280;35355;49.198;-0.368;2023-02-28T02:49:00;102333.06;;;2.15;63.01
49461;BME280;35355;49.198;-0.368;2023-02-28T02:51:30;102326.00;;;2.14;63.53
49461;BME280;35355;49.198;-0.368;2023-02-28T02:54:02;102334.09;;;2.14;63.82
49461;BME280;35355;49.198;-0.368;2023-02-28T02:56:31;102328.19;;;2.10;63.08
49461;BME280;35355;49.198;-0.368;2023-02-28T02:59:05;102329.00;;;2.11;63.20
49461;BME280;35355;49.198;-0.368;2023-02-28T03:01:34;102325.47;;;2.10;63.00
49461;BME280;35355;49.198;-0.368;2023-02-28T03:04:04;102333.91;;;2.07;63.46
49461;BME280;35355;49.198;-0.368;2023-02-28T03:06:31;102325.16;;;2.05;63.19
49461;BME280;35355;49.198;-0.368;2023-02-28T03:08:56;102334.06;;;2.06;63.74
49461;BME280;35355;49.198;-0.368;2023-02-28T03:11:22;102337.59;;;2.06;64.00
49461;BME280;35355;49.198;-0.368;2023-02-28T03:22:07;102333.41;;;2.04;63.73
49461;BME280;35355;49.198;-0.368;2023-02-28T03:27:28;102332.88;;;2.00;63.76
49461;BME280;35355;49.198;-0.368;2023-02-28T03:30:09;102336.72;;;1.98;63.73
49461;BME280;35355;49.198;-0.368;2023-02-28T03:32:53;102334.03;;;1.98;63.49
49461;BME280;35355;49.198;-0.368;2023-02-28T03:35:31;102343.31;;;1.95;63.38
49461;BME280;35355;49.198;-0.368;2023-02-28T03:38:05;102339.75;;;1.95;63.61
49461;BME280;35355;49.198;-0.368;2023-02-28T03:40:32;102335.22;;;1.95;63.99
49461;BME280;35355;49.198;-0.368;2023-02-28T03:43:10;102334.38;;;1.95;64.16
49461;BME280;35355;49.198;-0.368;2023-02-28T03:45:39;102341.44;;;1.96;64.11
49461;BME280;35355;49.198;-0.368;2023-02-28T03:48:08;102337.94;;;1.95;63.52
49461;BME280;35355;49.198;-0.368;2023-02-28T03:50:40;102323.59;;;1.95;63.96
49461;BME280;35355;49.198;-0.368;2023-02-28T03:53:18;102339.41;;;1.98;63.60
49461;BME280;35355;49.198;-0.368;2023-02-28T03:55:50;102329.50;;;1.98;63.86
49461;BME280;35355;49.198;-0.368;2023-02-28T03:58:38;102343.16;;;1.97;63.57
49461;BME280;35355;49.198;-0.368;2023-02-28T04:01:11;102338.09;;;1.93;63.32
49461;BME280;35355;49.198;-0.368;2023-02-28T04:03:38;102334.88;;;1.90;63.80
49461;BME280;35355;49.198;-0.368;2023-02-28T04:06:07;102334.03;;;1.89;63.67
49461;BME280;35355;49.198;-0.368;2023-02-28T04:08:37;102338.38;;;1.90;64.31
49461;BME280;35355;49.198;-0.368;2023-02-28T04:11:27;102340.94;;;1.92;64.03
49461;BME280;35355;49.198;-0.368;2023-02-28T04:13:57;102346.81;;;1.87;64.35
49461;BME280;35355;49.198;-0.368;2023-02-28T04:16:22;102339.75;;;1.86;63.96
49461;BME280;35355;49.198;-0.368;2023-02-28T04:18:48;102332.84;;;1.84;64.20
49461;BME280;35355;49.198;-0.368;2023-02-28T04:21:13;102353.53;;;1.83;63.81
49461;BME280;35355;49.198;-0.368;2023-02-28T04:23:39;102344.94;;;1.80;64.13
49461;BME280;35355;49.198;-0.368;2023-02-28T04:26:04;102345.09;;;1.78;63.89
49461;BME280;35355;49.198;-0.368;2023-02-28T04:28:31;102349.50;;;1.79;64.79
49461;BME280;35355;49.198;-0.368;2023-02-28T04:30:58;102341.91;;;1.74;64.31
49461;BME280;35355;49.198;-0.368;2023-02-28T04:33:24;102347.97;;;1.77;64.63
49461;BME280;35355;49.198;-0.368;2023-02-28T04:35:58;102352.84;;;1.73;64.05
49461;BME280;35355;49.198;-0.368;2023-02-28T04:38:24;102345.75;;;1.72;64.28
49461;BME280;35355;49.198;-0.368;2023-02-28T04:40:49;102358.72;;;1.77;64.88
49461;BME280;35355;49.198;-0.368;2023-02-28T04:43:14;102355.03;;;1.78;64.38
49461;BME280;35355;49.198;-0.368;2023-02-28T04:45:40;102355.88;;;1.78;64.57
49461;BME280;35355;49.198;-0.368;2023-02-28T04:48:05;102351.47;;;1.77;64.63
49461;BME280;35355;49.198;-0.368;2023-02-28T04:50:30;102354.88;;;1.79;64.36
49461;BME280;35355;49.198;-0.368;2023-02-28T04:52:56;102357.56;;;1.79;64.57
49461;BME280;35355;49.198;-0.368;2023-02-28T04:55:21;102357.91;;;1.76;64.28
49461;BME280;35355;49.198;-0.368;2023-02-28T04:57:47;102345.09;;;1.70;64.93
49461;BME280;35355;49.198;-0.368;2023-02-28T05:00:12;102363.44;;;1.74;64.71
49461;BME280;35355;49.198;-0.368;2023-02-28T05:02:40;102355.00;;;1.69;64.56
49461;BME280;35355;49.198;-0.368;2023-02-28T05:05:05;102360.53;;;1.68;64.62
49461;BME280;35355;49.198;-0.368;2023-02-28T05:07:31;102362.91;;;1.63;64.43
49461;BME280;35355;49.198;-0.368;2023-02-28T05:09:56;102372.47;;;1.65;65.17
49461;BME280;35355;49.198;-0.368;2023-02-28T05:12:21;102371.28;;;1.60;64.78
49461;BME280;35355;49.198;-0.368;2023-02-28T05:14:47;102368.44;;;1.61;65.35
49461;BME280;35355;49.198;-0.368;2023-02-28T05:17:12;102368.91;;;1.56;65.11
49461;BME280;35355;49.198;-0.368;2023-02-28T05:19:37;102373.28;;;1.57;64.74
49461;BME280;35355;49.198;-0.368;2023-02-28T05:22:03;102372.63;;;1.55;64.78
49461;BME280;35355;49.198;-0.368;2023-02-28T05:24:29;102366.53;;;1.53;64.99
49461;BME280;35355;49.198;-0.368;2023-02-28T05:26:55;102369.38;;;1.52;64.96
49461;BME280;35355;49.198;-0.368;2023-02-28T05:29:21;102359.66;;;1.51;64.76
49461;BME280;35355;49.198;-0.368;2023-02-28T05:51:37;102368.31;;;0.58;65.00
49461;BME280;35355;49.198;-0.368;2023-02-28T05:54:05;102371.97;;;0.57;64.84
49461;BME280;35355;49.198;-0.368;2023-02-28T05:56:31;102372.66;;;0.59;65.62
49461;BME280;35355;49.198;-0.368;2023-02-28T05:58:57;102366.81;;;0.63;65.62
49461;BME280;35355;49.198;-0.368;2023-02-28T06:01:24;102382.72;;;0.75;65.41
49461;BME280;35355;49.198;-0.368;2023-02-28T06:03:50;102383.09;;;0.80;65.82
49461;BME280;35355;49.198;-0.368;2023-02-28T06:06:15;102381.91;;;0.82;65.50
49461;BME280;35355;49.198;-0.368;2023-02-28T06:08:41;102389.22;;;0.90;66.29
49461;BME280;35355;49.198;-0.368;2023-02-28T06:11:08;102388.03;;;0.93;66.44
49461;BME280;35355;49.198;-0.368;2023-02-28T06:13:34;102384.03;;;0.97;66.09
49461;BME280;35355;49.198;-0.368;2023-02-28T06:16:02;102396.84;;;1.03;65.46
49461;BME280;35355;49.198;-0.368;2023-02-28T06:18:27;102401.91;;;1.06;66.30
49461;BME280;35355;49.198;-0.368;2023-02-28T06:20:53;102403.63;;;1.07;65.96
49461;BME280;35355;49.198;-0.368;2023-02-28T06:23:20;102400.59;;;1.10;65.99
49461;BME280;35355;49.198;-0.368;2023-02-28T06:25:46;102407.69;;;1.11;65.83
49461;BME280;35355;49.198;-0.368;2023-02-28T06:28:12;102413.56;;;1.15;66.07
49461;BME280;35355;49.198;-0.368;2023-02-28T06:30:38;102407.38;;;1.14;65.83
49461;BME280;35355;49.198;-0.368;2023-02-28T06:33:03;102412.44;;;1.17;65.80
49461;BME280;35355;49.198;-0.368;2023-02-28T06:35:28;102418.63;;;1.18;65.80
49461;BME280;35355;49.198;-0.368;2023-02-28T06:37:54;102420.66;;;1.16;66.37
49461;BME280;35355;49.198;-0.368;2023-02-28T06:40:20;102411.91;;;1.14;65.99
49461;BME280;35355;49.198;-0.368;2023-02-28T06:42:45;102409.38;;;1.12;66.07
49461;BME280;35355;49.198;-0.368;2023-02-28T06:45:11;102418.94;;;1.15;65.67
49461;BME280;35355;49.198;-0.368;2023-02-28T06:47:38;102412.19;;;1.11;66.27
49461;BME280;35355;49.198;-0.368;2023-02-28T06:50:06;102425.50;;;1.12;66.01
49461;BME280;35355;49.198;-0.368;2023-02-28T06:52:32;102430.91;;;1.12;66.51
49461;BME280;35355;49.198;-0.368;2023-02-28T06:54:57;102429.19;;;1.11;66.40
49461;BME280;35355;49.198;-0.368;2023-02-28T06:57:29;102429.19;;;1.11;66.12
49461;BME280;35355;49.198;-0.368;2023-02-28T07:00:05;102428.34;;;1.11;65.85
49461;BME280;35355;49.198;-0.368;2023-02-28T07:02:32;102430.03;;;1.12;66.34
49461;BME280;35355;49.198;-0.368;2023-02-28T07:04:58;102436.28;;;1.12;66.19
49461;BME280;35355;49.198;-0.368;2023-02-28T07:07:23;102438.97;;;1.12;66.75
49461;BME280;35355;49.198;-0.368;2023-02-28T07:09:49;102435.56;;;1.10;66.07
49461;BME280;35355;49.198;-0.368;2023-02-28T07:12:14;102439.78;;;1.13;66.39
49461;BME280;35355;49.198;-0.368;2023-02-28T07:14:40;102426.34;;;1.13;66.70
49461;BME280;35355;49.198;-0.368;2023-02-28T07:17:07;102432.09;;;1.18;66.37
49461;BME280;35355;49.198;-0.368;2023-02-28T07:19:33;102431.94;;;1.19;66.43
49461;BME280;35355;49.198;-0.368;2023-02-28T07:21:58;102432.31;;;1.25;66.72
49461;BME280;35355;49.198;-0.368;2023-02-28T07:24:24;102436.69;;;1.26;66.24
49461;BME280;35355;49.198;-0.368;2023-02-28T07:26:53;102434.69;;;1.28;66.57
49461;BME280;35355;49.198;-0.368;2023-02-28T07:29:18;102444.13;;;1.32;66.46
49461;BME280;35355;49.198;-0.368;2023-02-28T07:31:43;102436.38;;;1.29;66.59
49461;BME280;35355;49.198;-0.368;2023-02-28T07:34:09;102445.63;;;1.34;66.69
49461;BME280;35355;49.198;-0.368;2023-02-28T07:36:34;102451.41;;;1.39;66.38
49461;BME280;35355;49.198;-0.368;2023-02-28T07:38:59;102446.53;;;1.43;66.51
49461;BME280;35355;49.198;-0.368;2023-02-28T07:41:25;102456.16;;;1.46;66.88
49461;BME280;35355;49.198;-0.368;2023-02-28T07:43:54;102456.53;;;1.51;66.42
49461;BME280;35355;49.198;-0.368;2023-02-28T07:46:20;102462.44;;;1.54;66.09
49461;BME280;35355;49.198;-0.368;2023-02-28T07:48:46;102467.47;;;1.57;66.79
49461;BME280;35355;49.198;-0.368;2023-02-28T07:51:11;102470.72;;;1.61;66.42
49461;BME280;35355;49.198;-0.368;2023-02-28T07:53:37;102471.91;;;1.67;66.72
49461;BME280;35355;49.198;-0.368;2023-02-28T07:56:03;102474.16;;;1.71;66.14
49461;BME280;35355;49.198;-0.368;2023-02-28T07:58:30;102469.28;;;1.75;66.53
49461;BME280;35355;49.198;-0.368;2023-02-28T08:00:55;102474.00;;;1.81;66.27
49461;BME280;35355;49.198;-0.368;2023-02-28T08:03:22;102470.81;;;1.86;65.79
49461;BME280;35355;49.198;-0.368;2023-02-28T08:05:48;102470.34;;;1.90;65.91
49461;BME280;35355;49.198;-0.368;2023-02-28T08:08:15;102476.09;;;1.96;65.88
49461;BME280;35355;49.198;-0.368;2023-02-28T08:10:40;102475.78;;;1.99;65.96
49461;BME280;35355;49.198;-0.368;2023-02-28T08:13:06;102475.97;;;2.05;65.90
49461;BME280;35355;49.198;-0.368;2023-02-28T08:15:32;102472.78;;;2.10;65.87
49461;BME280;35355;49.198;-0.368;2023-02-28T08:17:57;102470.78;;;2.12;65.93
49461;BME280;35355;49.198;-0.368;2023-02-28T08:20:24;102472.81;;;2.18;65.85
49461;BME280;35355;49.198;-0.368;2023-02-28T08:22:49;102477.25;;;2.27;66.02
49461;BME280;35355;49.198;-0.368;2023-02-28T08:25:15;102480.09;;;2.34;66.14
49461;BME280;35355;49.198;-0.368;2023-02-28T08:27:41;102471.69;;;2.37;65.79
49461;BME280;35355;49.198;-0.368;2023-02-28T08:30:06;102474.41;;;2.45;65.66
49461;BME280;35355;49.198;-0.368;2023-02-28T08:32:33;102478.97;;;2.53;65.68
49461;BME280;35355;49.198;-0.368;2023-02-28T08:34:58;102477.47;;;2.59;65.71
49461;BME280;35355;49.198;-0.368;2023-02-28T08:37:24;102480.34;;;2.66;65.87
49461;BME280;35355;49.198;-0.368;2023-02-28T08:39:49;102473.94;;;2.67;65.38
49461;BME280;35355;49.198;-0.368;2023-02-28T08:42:15;102482.38;;;2.80;65.65
49461;BME280;35355;49.198;-0.368;2023-02-28T08:44:40;102488.13;;;2.85;65.61
49461;BME280;35355;49.198;-0.368;2023-02-28T08:47:06;102482.25;;;2.90;65.49
49461;BME280;35355;49.198;-0.368;2023-02-28T08:49:31;102484.25;;;2.96;65.54
49461;BME280;35355;49.198;-0.368;2023-02-28T08:51:56;102479.72;;;3.05;65.20
49461;BME280;35355;49.198;-0.368;2023-02-28T08:54:22;102480.03;;;3.10;65.03
49461;BME280;35355;49.198;-0.368;2023-02-28T08:56:48;102481.56;;;3.21;65.25
49461;BME280;35355;49.198;-0.368;2023-02-28T08:59:13;102477.66;;;3.31;65.07
49461;BME280;35355;49.198;-0.368;2023-02-28T09:01:40;102476.47;;;3.50;64.46
49461;BME280;35355;49.198;-0.368;2023-02-28T09:04:06;102477.13;;;3.61;64.40
49461;BME280;35355;49.198;-0.368;2023-02-28T09:06:34;102489.41;;;3.72;64.31
49461;BME280;35355;49.198;-0.368;2023-02-28T09:08:59;102486.16;;;3.76;64.29
49461;BME280;35355;49.198;-0.368;2023-02-28T09:11:27;102477.53;;;3.81;63.69
49461;BME280;35355;49.198;-0.368;2023-02-28T09:13:53;102486.00;;;3.86;63.44
49461;BME280;35355;49.198;-0.368;2023-02-28T09:16:18;102476.16;;;3.93;63.92
49461;BME280;35355;49.198;-0.368;2023-02-28T09:18:44;102472.25;;;4.04;63.41
49461;BME280;35355;49.198;-0.368;2023-02-28T09:21:16;102479.59;;;4.18;63.65
49461;BME280;35355;49.198;-0.368;2023-02-28T09:23:42;102477.38;;;4.22;63.02
49461;BME280;35355;49.198;-0.368;2023-02-28T09:26:16;102468.78;;;4.27;63.12
49461;BME280;35355;49.198;-0.368;2023-02-28T09:28:42;102472.25;;;4.35;62.64
49461;BME280;35355;49.198;-0.368;2023-02-28T09:31:13;102473.00;;;4.52;62.96
49461;BME280;35355;49.198;-0.368;2023-02-28T09:33:39;102466.66;;;4.68;61.86
49461;BME280;35355;49.198;-0.368;2023-02-28T09:36:04;102468.59;;;4.83;61.29
49461;BME280;35355;49.198;-0.368;2023-02-28T09:38:30;102486.53;;;4.99;61.40
49461;BME280;35355;49.198;-0.368;2023-02-28T09:40:57;102468.38;;;5.07;60.34
49461;BME280;35355;49.198;-0.368;2023-02-28T09:43:26;102465.69;;;5.22;60.22
49461;BME280;35355;49.198;-0.368;2023-02-28T09:46:03;102463.75;;;5.31;60.80
49461;BME280;35355;49.198;-0.368;2023-02-28T09:48:38;102467.78;;;5.35;60.15
49461;BME280;35355;49.198;-0.368;2023-02-28T09:51:16;102451.91;;;5.32;59.47
49461;BME280;35355;49.198;-0.368;2023-02-28T09:53:47;102460.41;;;5.29;58.45
49461;BME280;35355;49.198;-0.368;2023-02-28T09:56:36;102457.38;;;5.24;59.32
49461;BME280;35355;49.198;-0.368;2023-02-28T10:04:40;102468.44;;;4.99;58.64
49461;BME280;35355;49.198;-0.368;2023-02-28T10:07:20;102455.97;;;4.90;58.73
49461;BME280;35355;49.198;-0.368;2023-02-28T10:09:52;102459.75;;;4.89;57.85
49461;BME280;35355;49.198;-0.368;2023-02-28T10:12:19;102457.69;;;4.91;57.83
49461;BME280;35355;49.198;-0.368;2023-02-28T10:14:47;102462.72;;;4.94;57.06
49461;BME280;35355;49.198;-0.368;2023-02-28T10:17:21;102479.47;;;4.98;57.41
49461;BME280;35355;49.198;-0.368;2023-02-28T10:22:26;102473.63;;;5.24;57.24
49461;BME280;35355;49.198;-0.368;2023-02-28T10:24:55;102478.53;;;5.43;57.11
49461;BME280;35355;49.198;-0.368;2023-02-28T10:27:28;102472.09;;;5.59;56.55
49461;BME280;35355;49.198;-0.368;2023-02-28T10:29:58;102458.66;;;5.66;56.67
49461;BME280;35355;49.198;-0.368;2023-02-28T10:32:32;102457.91;;;5.72;55.98
49461;BME280;35355;49.198;-0.368;2023-02-28T10:35:14;102445.78;;;5.83;56.93
49461;BME280;35355;49.198;-0.368;2023-02-28T10:37:42;102454.28;;;5.95;54.87
49461;BME280;35355;49.198;-0.368;2023-02-28T10:42:42;102448.19;;;5.93;54.39
49461;BME280;35355;49.198;-0.368;2023-02-28T10:45:19;102447.91;;;5.88;54.06
49461;BME280;35355;49.198;-0.368;2023-02-28T10:48:01;102448.66;;;5.82;54.98
49461;BME280;35355;49.198;-0.368;2023-02-28T10:55:41;102455.56;;;5.99;54.55
49461;BME280;35355;49.198;-0.368;2023-02-28T10:58:21;102452.69;;;6.01;55.34
49461;BME280;35355;49.198;-0.368;2023-02-28T11:00:47;102453.16;;;6.04;53.80
49461;BME280;35355;49.198;-0.368;2023-02-28T11:03:34;102456.41;;;6.14;54.38
49461;BME280;35355;49.198;-0.368;2023-02-28T11:06:06;102452.94;;;6.21;54.02
49461;BME280;35355;49.198;-0.368;2023-02-28T11:08:32;102447.91;;;6.18;53.46
49461;BME280;35355;49.198;-0.368;2023-02-28T11:11:03;102444.91;;;6.12;53.73
49461;BME280;35355;49.198;-0.368;2023-02-28T11:13:32;102453.69;;;6.14;53.59
49461;BME280;35355;49.198;-0.368;2023-02-28T11:16:02;102454.91;;;6.12;53.53
49461;BME280;35355;49.198;-0.368;2023-02-28T11:18:33;102443.88;;;6.13;53.79
49461;BME280;35355;49.198;-0.368;2023-02-28T11:21:02;102449.78;;;6.17;53.34
49461;BME280;35355;49.198;-0.368;2023-02-28T11:23:30;102455.00;;;6.19;53.91
49461;BME280;35355;49.198;-0.368;2023-02-28T11:26:00;102444.81;;;6.21;53.54
49461;BME280;35355;49.198;-0.368;2023-02-28T11:28:34;102445.19;;;6.18;54.07
49461;BME280;35355;49.198;-0.368;2023-02-28T11:31:05;102449.25;;;6.07;53.71
49461;BME280;35355;49.198;-0.368;2023-02-28T11:33:37;102444.34;;;6.02;53.38
49461;BME280;35355;49.198;-0.368;2023-02-28T11:36:12;102428.09;;;6.02;54.23
49461;BME280;35355;49.198;-0.368;2023-02-28T11:38:38;102439.78;;;6.03;53.94
49461;BME280;35355;49.198;-0.368;2023-02-28T11:43:36;102422.03;;;6.00;53.72
49461;BME280;35355;49.198;-0.368;2023-02-28T11:46:24;102425.28;;;5.95;55.12
49461;BME280;35355;49.198;-0.368;2023-02-28T11:56:32;102421.06;;;5.93;54.62
49461;BME280;35355;49.198;-0.368;2023-02-28T11:59:03;102428.19;;;5.94;54.42
49461;BME280;35355;49.198;-0.368;2023-02-28T12:02:28;102413.31;;;5.90;55.10
49461;BME280;35355;49.198;-0.368;2023-02-28T12:18:07;102392.69;;;5.74;56.67
49461;BME280;35355;49.198;-0.368;2023-02-28T12:29:08;102388.13;;;5.59;57.53
49461;BME280;35355;49.198;-0.368;2023-02-28T12:31:49;102374.88;;;5.50;56.96
49461;BME280;35355;49.198;-0.368;2023-02-28T12:34:19;102375.63;;;5.43;57.92
49461;BME280;35355;49.198;-0.368;2023-02-28T12:36:47;102364.06;;;5.35;58.73
49461;BME280;35355;49.198;-0.368;2023-02-28T12:41:44;102367.22;;;5.38;58.85
49461;BME280;35355;49.198;-0.368;2023-02-28T12:44:18;102355.25;;;5.48;59.27
49461;BME280;35355;49.198;-0.368;2023-02-28T12:46:49;102361.59;;;5.55;59.23
49461;BME280;35355;49.198;-0.368;2023-02-28T12:49:21;102346.78;;;5.51;59.55
49461;BME280;35355;49.198;-0.368;2023-02-28T12:51:47;102336.47;;;5.46;59.86
49461;BME280;35355;49.198;-0.368;2023-02-28T12:54:28;102336.28;;;5.48;60.07
49461;BME280;35355;49.198;-0.368;2023-02-28T12:57:09;102329.47;;;5.52;60.38
49461;BME280;35355;49.198;-0.368;2023-02-28T12:59:41;102327.97;;;5.64;60.83
49461;BME280;35355;49.198;-0.368;2023-02-28T13:02:42;102335.03;;;5.80;61.00
49461;BME280;35355;49.198;-0.368;2023-02-28T13:05:32;102325.09;;;5.87;60.03
49461;BME280;35355;49.198;-0.368;2023-02-28T13:11:01;102308.75;;;5.95;61.26
49461;BME280;35355;49.198;-0.368;2023-02-28T13:13:28;102314.63;;;5.99;60.71
49461;BME280;35355;49.198;-0.368;2023-02-28T13:16:03;102304.53;;;5.93;60.87
49461;BME280;35355;49.198;-0.368;2023-02-28T13:18:31;102308.22;;;5.85;61.36
49461;BME280;35355;49.198;-0.368;2023-02-28T13:20:57;102304.78;;;5.76;61.73
49461;BME280;35355;49.198;-0.368;2023-02-28T13:26:06;102286.44;;;5.78;62.17
49461;BME280;35355;49.198;-0.368;2023-02-28T13:31:15;102286.97;;;5.67;61.65
49461;BME280;35355;49.198;-0.368;2023-02-28T13:44:11;102279.22;;;5.49;63.37
49461;BME280;35355;49.198;-0.368;2023-02-28T13:51:52;102259.28;;;5.35;64.16
49461;BME280;35355;49.198;-0.368;2023-02-28T13:54:28;102260.13;;;5.36;63.87
49461;BME280;35355;49.198;-0.368;2023-02-28T14:20:19;102251.53;;;4.04;64.27
49461;BME280;35355;49.198;-0.368;2023-02-28T14:25:59;102242.91;;;4.24;65.18
49461;BME280;35355;49.198;-0.368;2023-02-28T14:29:33;102241.53;;;4.28;65.46
49461;BME280;35355;49.198;-0.368;2023-02-28T14:31:44;102242.81;;;4.32;66.07
49461;BME280;35355;49.198;-0.368;2023-02-28T14:36:41;102234.16;;;4.37;66.46
49461;BME280;35355;49.198;-0.368;2023-02-28T14:39:12;102223.00;;;4.40;66.97
49461;BME280;35355;49.198;-0.368;2023-02-28T14:41:41;102221.06;;;4.49;67.59
49461;BME280;35355;49.198;-0.368;2023-02-28T14:44:19;102211.16;;;4.56;67.39
49461;BME280;35355;49.198;-0.368;2023-02-28T14:46:48;102201.66;;;4.60;67.70
49461;BME280;35355;49.198;-0.368;2023-02-28T14:51:50;102196.06;;;4.77;68.12
49461;BME280;35355;49.198;-0.368;2023-02-28T14:54:26;102187.47;;;4.88;68.72
49461;BME280;35355;49.198;-0.368;2023-02-28T14:56:51;102191.50;;;4.92;68.07
49461;BME280;35355;49.198;-0.368;2023-02-28T14:59:29;102188.78;;;4.92;67.72
49461;BME280;35355;49.198;-0.368;2023-02-28T15:04:39;102177.88;;;4.85;66.94
49461;BME280;35355;49.198;-0.368;2023-02-28T15:07:11;102166.78;;;4.80;68.57
49461;BME280;35355;49.198;-0.368;2023-02-28T15:09:38;102156.97;;;4.79;68.34
49461;BME280;35355;49.198;-0.368;2023-02-28T15:12:03;102161.56;;;4.79;69.20
49461;BME280;35355;49.198;-0.368;2023-02-28T15:14:29;102162.78;;;4.76;68.98
49461;BME280;35355;49.198;-0.368;2023-02-28T15:17:02;102162.41;;;4.79;68.75
49461;BME280;35355;49.198;-0.368;2023-02-28T15:19:33;102164.28;;;4.79;69.67
49461;BME280;35355;49.198;-0.368;2023-02-28T15:22:06;102158.19;;;4.77;69.37
49461;BME280;35355;49.198;-0.368;2023-02-28T15:24:56;102159.44;;;4.74;69.59
49461;BME280;35355;49.198;-0.368;2023-02-28T15:27:27;102146.81;;;4.66;70.30
49461;BME280;35355;49.198;-0.368;2023-02-28T15:29:57;102155.97;;;4.65;70.40
49461;BME280;35355;49.198;-0.368;2023-02-28T15:34:51;102150.47;;;4.59;70.55